Auburn Township, Ohio
Current Conditions -  °F | °C
As of 2:54 AM on Monday 22 Dec 2014 (Local Time) from KAKR Reporting Station
Clear Clear  
Wind Chill: 27°   Ceiling: Unl
Heat Index: 27°   Visibility: 8mi
Dew Point: 20°   Wind: 3mph
Humidity: 75%   Direction: 120°ESE
Pressure: 30.13"   Gusts: NA
Location:  41.2966°N, 81.2269°W
Report Text: KAKR 220754Z AUTO 12003KT 8SM CLR M03/M07 A3013 RMK AO2 SLP213 T10281067 $
Loading
Personal Weather Stations






























Interactive Weather Map New forecast layout! Learn more

10-Day Weather Forecast

Advertisements
Track Severe Weather on mobile